Darstellungsparameter: Aktuell verwendete Einstellungen:
Skalierung der Graphiken ... ?
xyx+y,   Skalierungsfaktor:      Skalierung: Modus: x, Faktor: 1
Darstellungszeitraum ... ?
Vom - - bis: - -   Zeitraum: 20.04.2010 - 22.04.2010
Min/Max/Avg-Anzeige ... ?
Zeige MMA aktuell
Zeige MMA Monat
Zeige MMA alles
Zeige --A aktuell
Zeige --A Monat
Zeige --A alles
Keine MMA-Anzeige
MMA:
Average (ber die Originaldaten)
MMA-Basis: 20.04.2010 - 22.04.2010
Quicknavigation für Darstellung... ?
Tage:      1T, 2T, 3T, 5T -1T -2T -3T -5T +1T +2T +3T +5T
Wochen: 1W, 2W, 3W -1W -2W -3W +1W +2W +3W
Monate: 1M, 3M, 6M -1M -3M -6M +1M +3M +6M
Jahre:    1J, 3J, 5J, 10J -1J -3J -5J -10J +1J +3J +5J +10J
Nutze für die Darstellung ... ?
Originaldaten oder ...
Mittelwerte Minima Maxima auf...
Stundenbasis Tagesbasis Wochenbasis
Monatsbasis Jahresbasis      Datenbasis: Mittelwerte auf Stundenbasis
Darstellen als:
Statistik (Auto) Statistik J:M      Darstellung:
Zur Graphik,    zurück zur Übersicht aller Sensoren.
 
Tabellarische Datenbersicht: ?
 
Sensor: Nr:Datum:Temp:Abs-Feuchte:Windchill:Wind:
Aussen-T/F 1 20-04-2010 00:00:00 8.64 C 5.46 g/m*3 8.64 C 0 km/h
2 20-04-2010 01:00:00 7.82 C 5.38 g/m*3 7.82 C 0 km/h
3 20-04-2010 02:00:00 6.7 C 5.49 g/m*3 6.7 C 0 km/h
4 20-04-2010 03:00:00 5.84 C 5.49 g/m*3 5.84 C 0 km/h
5 20-04-2010 04:00:00 5.02 C 5.44 g/m*3 5.02 C 0 km/h
6 20-04-2010 05:00:00 4.36 C 5.33 g/m*3 4.36 C 0 km/h
7 20-04-2010 06:00:00 3.68 C 5.25 g/m*3 3.68 C 0 km/h
8 20-04-2010 07:00:00 3.46 C 5.25 g/m*3 3.46 C 0 km/h
9 20-04-2010 08:00:00 3.78 C 5.48 g/m*3 3.78 C 0 km/h
10 20-04-2010 09:00:00 5.48 C 5.93 g/m*3 5.48 C 0 km/h
11 20-04-2010 10:00:00 9.14 C 6.03 g/m*3 9.14 C 0 km/h
12 20-04-2010 11:00:00 12.88 C 5.47 g/m*3 12.88 C 0 km/h
13 20-04-2010 12:00:00 16.16 C 4.43 g/m*3 16.16 C 0 km/h
14 20-04-2010 13:00:00 18.52 C 3.17 g/m*3 18.52 C 0 km/h
15 20-04-2010 14:00:00 19.2 C 3.3 g/m*3 19.2 C 0 km/h
16 20-04-2010 15:00:00 20.82 C 3.63 g/m*3 20.82 C 0 km/h
17 20-04-2010 16:00:00 21.24 C 3.72 g/m*3 21.24 C 0 km/h
18 20-04-2010 17:00:00 19.06 C 3.73 g/m*3 19.06 C 0 km/h
19 20-04-2010 18:00:00 17.4 C 4.03 g/m*3 17.4 C 0 km/h
20 20-04-2010 19:00:00 15.46 C 4.01 g/m*3 15.46 C 0 km/h
21 20-04-2010 20:00:00 12.88 C 3.2 g/m*3 12.88 C 0 km/h
22 20-04-2010 21:00:00 11.1 C 2.76 g/m*3 11.1 C 0 km/h
23 20-04-2010 22:00:00 9.86 C 3.05 g/m*3 9.86 C 0 km/h
24 20-04-2010 23:00:00 8.82 C 3.19 g/m*3 8.82 C 0 km/h
25 21-04-2010 00:00:00 7.86 C 3.49 g/m*3 7.86 C 0 km/h
Sensor: Nr:Datum:Temp:Abs-Feuchte:Windchill:Wind:
Aussen-T/F 26 21-04-2010 01:00:00 6.88 C 3.64 g/m*3 6.88 C 0 km/h
27 21-04-2010 02:00:00 5.82 C 3.8 g/m*3 5.82 C 0 km/h
28 21-04-2010 03:00:00 4.66 C 4 g/m*3 4.66 C 0 km/h
29 21-04-2010 04:00:00 3.88 C 4.02 g/m*3 3.88 C 0 km/h
30 21-04-2010 05:00:00 2.84 C 4.06 g/m*3 2.84 C 0 km/h
31 21-04-2010 06:00:00 2.4 C 4.08 g/m*3 2.4 C 0 km/h
32 21-04-2010 07:00:00 2.94 C 4.1 g/m*3 2.94 C 0 km/h
33 21-04-2010 08:00:00 4.26 C 4.06 g/m*3 4.26 C 0 km/h
34 21-04-2010 09:00:00 5.34 C 4.14 g/m*3 5.34 C 0 km/h
35 21-04-2010 10:00:00 7.02 C 4.16 g/m*3 7.02 C 0 km/h
36 21-04-2010 11:00:00 6.86 C 4.88 g/m*3 6.86 C 0 km/h
37 21-04-2010 12:00:00 6.98 C 5.35 g/m*3 6.98 C 0 km/h
38 21-04-2010 13:00:00 9.54 C 4.53 g/m*3 9.54 C 0 km/h
39 21-04-2010 14:00:00 10.64 C 3.8 g/m*3 10.64 C 0 km/h
40 21-04-2010 15:00:00 11.9 C 3.18 g/m*3 11.9 C 0 km/h
41 21-04-2010 16:00:00 12.7 C 3.01 g/m*3 12.7 C 0 km/h
42 21-04-2010 17:00:00 12.3 C 2.78 g/m*3 12.3 C 0 km/h
43 21-04-2010 18:00:00 12.36 C 2.53 g/m*3 12.36 C 0 km/h
44 21-04-2010 19:00:00 11.26 C 2.36 g/m*3 11.26 C 0 km/h
45 21-04-2010 20:00:00 9.22 C 2.7 g/m*3 9.22 C 0 km/h
46 21-04-2010 21:00:00 7.28 C 3.01 g/m*3 7.28 C 0 km/h
47 21-04-2010 22:00:00 6.28 C 3.12 g/m*3 6.28 C 0 km/h
48 21-04-2010 23:00:00 5.04 C 3.39 g/m*3 5.04 C 0 km/h
49 22-04-2010 00:00:00 3.86 C 3.5 g/m*3 3.86 C 0 km/h
50 22-04-2010 01:00:00 2.92 C 3.64 g/m*3 2.92 C 0 km/h
Sensor: Nr:Datum:Temp:Abs-Feuchte:Windchill:Wind:
Aussen-T/F 51 22-04-2010 02:00:00 2.04 C 3.74 g/m*3 2.04 C 0 km/h
52 22-04-2010 03:00:00 1.28 C 3.74 g/m*3 1.28 C 0 km/h
53 22-04-2010 04:00:00 0.8 C 3.81 g/m*3 0.8 C 0 km/h
54 22-04-2010 05:00:00 0.3 C 3.77 g/m*3 0.3 C 0 km/h
55 22-04-2010 06:00:00 -0.16 C 3.76 g/m*3 -0.16 C 0 km/h
56 22-04-2010 07:00:00 0 C 3.91 g/m*3 0 C 0 km/h
57 22-04-2010 08:00:00 0.72 C 4.01 g/m*3 0.72 C 0 km/h
58 22-04-2010 09:00:00 2.94 C 4.1 g/m*3 2.94 C 0 km/h
59 22-04-2010 10:00:00 6.28 C 3.7 g/m*3 6.28 C 0 km/h
60 22-04-2010 11:00:00 9.12 C 3.02 g/m*3 9.12 C 0 km/h
61 22-04-2010 12:00:00 10.76 C 2.86 g/m*3 10.76 C 0 km/h
62 22-04-2010 13:00:00 12.76 C 2.35 g/m*3 12.76 C 0 km/h
63 22-04-2010 14:00:00 15.3 C 2.61 g/m*3 15.3 C 0 km/h
64 22-04-2010 15:00:00 16.38 C 2.79 g/m*3 16.38 C 0 km/h
65 22-04-2010 16:00:00 17.88 C 3.05 g/m*3 17.88 C 0 km/h
66 22-04-2010 17:00:00 20.28 C 3.51 g/m*3 20.28 C 0 km/h
67 22-04-2010 18:00:00 18.64 C 3.19 g/m*3 18.64 C 0 km/h
68 22-04-2010 19:00:00 16.78 C 2.86 g/m*3 16.78 C 0 km/h
69 22-04-2010 20:00:00 13.42 C 2.33 g/m*3 13.42 C 0 km/h
70 22-04-2010 21:00:00 10.78 C 2.65 g/m*3 10.78 C 0 km/h
71 22-04-2010 22:00:00 9.28 C 2.8 g/m*3 9.28 C 0 km/h
72 22-04-2010 23:00:00 8.12 C 3.18 g/m*3 8.12 C 0 km/h

Maximal/Minimal-Werte vom 20.04.2010 - 22.04.2010

Sensor Min Max Avg
Temp
(Aussen-T/F)
-0.2 °C
22-04-2010  06:08:04
21.6 °C
20-04-2010  16:18:02
8.95 °C
Abs-Feuchte
(Aussen-T/F)
2.33 g/m*3
22-04-2010  20:00:00
6.03 g/m*3
20-04-2010  10:00:00
3.77 g/m*3
Windchill
(Aussen-T/F)
-0.16 C
22-04-2010  06:00:00
21.24 C
20-04-2010  16:00:00
8.82 C

Die Daten stammen von einer Davis Vantage Pro 2 Wetter-Station und werden unter Linux mit der Software wview2wettercgi und aufbereitet. Alle Angaben erfolgen ohne Gewähr für ihre Vollständigkeit oder Richtigkeit.
Kontakt: Rainer Krienke krienke@uni-koblenz.de . Meine Webseiten an der Uni Koblenz oder privat.
Version: $Revision: 0.78 $